Leando, Iowa
Current Conditions -  °F | °C
As of 3:55 PM on Tuesday 25 Nov 2014 (Local Time) from KFFL Reporting Station
Clear Clear  
Wind Chill: 32°   Ceiling: Unl
Heat Index: 32°   Visibility: 10mi
Dew Point: 19°   Wind: 3mph
Humidity: 60%   Direction: 190°S
Pressure: 30.12"   Gusts: NA
Location:  40.8011°N, 92.0459°W
Report Text: KFFL 252155Z AUTO 19003KT 10SM CLR M00/M07 A3012 RMK AO2
Loading
Personal Weather Stations






























Interactive Weather Map New forecast layout! Learn more

10-Day Weather Forecast

Advertisements
Track Severe Weather on mobile